首页
METAR-TAF:

METAR-TAF

机场 :

Waupaca Municipal Airport

Waupaca, 威斯康辛州, 美国

纬度: 44-20-01N, 经度: 089-00-55W, 海拔: 252米

当前天气观测

该预报发布于11分钟前的07:55 UTC
风速6节,风向北转东北
温度 3°C
湿度 65%
气压 1021 hPa
能見度: 16.1公里
阴天层高于3300英尺

METAR: KPCZ 310755Z AUTO 03006KT 10SM OVC033 03/M03 A3016 RMK AO2 T00311029

时间: 03:06 (08:06 UTC)


TAF: 丢失

超过4000个机场的气象观测和天气预报(METAR&TAF报告)。

可查询的气象台以黄色和红色小点在地图上表示。

将鼠标移到小点上方,可查看气象台名称。

然后点击查看天气观测和预报。

如需切换地图:点击带黑十字的绿色按钮放大地图;点击带横线的绿色按钮缩小地图;或者点击绿色箭头查看邻近地区的地图。


METAR-TAF: